sensor_id;sensor_type;location;lat;lon;timestamp;P1;durP1;ratioP1;P2;durP2;ratioP2
75785;SDS011;64402;44.708;37.644;2022-10-31T00:01:18;6.95;;;1.70;;
75785;SDS011;64402;44.708;37.644;2022-10-31T00:03:56;5.72;;;1.35;;
75785;SDS011;64402;44.708;37.644;2022-10-31T00:06:22;5.18;;;1.42;;
75785;SDS011;64402;44.708;37.644;2022-10-31T00:08:53;6.53;;;1.35;;
75785;SDS011;64402;44.708;37.644;2022-10-31T00:11:20;9.38;;;1.65;;
75785;SDS011;64402;44.708;37.644;2022-10-31T00:13:47;5.25;;;1.52;;
75785;SDS011;64402;44.708;37.644;2022-10-31T00:16:18;6.53;;;1.48;;
75785;SDS011;64402;44.708;37.644;2022-10-31T00:18:50;7.32;;;1.48;;
75785;SDS011;64402;44.708;37.644;2022-10-31T00:21:17;5.82;;;1.70;;
75785;SDS011;64402;44.708;37.644;2022-10-31T00:23:43;5.57;;;1.38;;
75785;SDS011;64402;44.708;37.644;2022-10-31T00:26:09;7.82;;;1.80;;
75785;SDS011;64402;44.708;37.644;2022-10-31T00:28:36;6.43;;;1.80;;
75785;SDS011;64402;44.708;37.644;2022-10-31T00:31:06;7.30;;;1.88;;
75785;SDS011;64402;44.708;37.644;2022-10-31T00:33:34;5.82;;;1.55;;
75785;SDS011;64402;44.708;37.644;2022-10-31T00:36:02;3.72;;;1.52;;
75785;SDS011;64402;44.708;37.644;2022-10-31T00:38:29;6.55;;;2.33;;
75785;SDS011;64402;44.708;37.644;2022-10-31T00:40:55;6.78;;;1.77;;
75785;SDS011;64402;44.708;37.644;2022-10-31T00:43:22;6.65;;;1.55;;
75785;SDS011;64402;44.708;37.644;2022-10-31T00:45:48;7.47;;;1.88;;
75785;SDS011;64402;44.708;37.644;2022-10-31T00:48:14;8.63;;;2.33;;
75785;SDS011;64402;44.708;37.644;2022-10-31T00:50:41;4.65;;;1.45;;
75785;SDS011;64402;44.708;37.644;2022-10-31T00:53:07;7.90;;;1.90;;
75785;SDS011;64402;44.708;37.644;2022-10-31T00:55:34;8.23;;;2.00;;
75785;SDS011;64402;44.708;37.644;2022-10-31T00:58:00;10.32;;;2.08;;
75785;SDS011;64402;44.708;37.644;2022-10-31T01:00:26;5.95;;;1.80;;
75785;SDS011;64402;44.708;37.644;2022-10-31T01:02:52;6.95;;;1.77;;
75785;SDS011;64402;44.708;37.644;2022-10-31T01:05:18;7.00;;;1.73;;
75785;SDS011;64402;44.708;37.644;2022-10-31T01:07:45;5.60;;;1.60;;
75785;SDS011;64402;44.708;37.644;2022-10-31T01:10:11;8.65;;;1.92;;
75785;SDS011;64402;44.708;37.644;2022-10-31T01:15:05;8.52;;;1.67;;
75785;SDS011;64402;44.708;37.644;2022-10-31T01:17:32;6.30;;;2.00;;
75785;SDS011;64402;44.708;37.644;2022-10-31T01:19:58;8.13;;;1.83;;
75785;SDS011;64402;44.708;37.644;2022-10-31T01:22:24;4.72;;;1.65;;
75785;SDS011;64402;44.708;37.644;2022-10-31T01:24:50;8.32;;;2.53;;
75785;SDS011;64402;44.708;37.644;2022-10-31T01:27:16;8.13;;;2.17;;
75785;SDS011;64402;44.708;37.644;2022-10-31T01:29:42;10.02;;;2.20;;
75785;SDS011;64402;44.708;37.644;2022-10-31T01:32:08;7.97;;;2.13;;
75785;SDS011;64402;44.708;37.644;2022-10-31T01:34:34;6.10;;;2.05;;
75785;SDS011;64402;44.708;37.644;2022-10-31T01:37:01;6.50;;;2.08;;
75785;SDS011;64402;44.708;37.644;2022-10-31T01:39:27;8.90;;;2.13;;
75785;SDS011;64402;44.708;37.644;2022-10-31T01:41:53;7.45;;;1.85;;
75785;SDS011;64402;44.708;37.644;2022-10-31T01:49:24;8.52;;;2.58;;
75785;SDS011;64402;44.708;37.644;2022-10-31T01:52:06;5.40;;;2.17;;
75785;SDS011;64402;44.708;37.644;2022-10-31T01:54:41;9.52;;;2.05;;
75785;SDS011;64402;44.708;37.644;2022-10-31T01:57:14;5.25;;;1.80;;
75785;SDS011;64402;44.708;37.644;2022-10-31T01:59:43;5.05;;;1.80;;
75785;SDS011;64402;44.708;37.644;2022-10-31T02:02:12;6.20;;;1.85;;
75785;SDS011;64402;44.708;37.644;2022-10-31T02:04:41;4.55;;;1.60;;
75785;SDS011;64402;44.708;37.644;2022-10-31T02:07:10;6.85;;;1.75;;
75785;SDS011;64402;44.708;37.644;2022-10-31T02:09:40;9.65;;;2.28;;
75785;SDS011;64402;44.708;37.644;2022-10-31T02:12:09;5.70;;;2.00;;
75785;SDS011;64402;44.708;37.644;2022-10-31T02:14:36;7.50;;;2.53;;
75785;SDS011;64402;44.708;37.644;2022-10-31T02:17:04;6.97;;;2.38;;
75785;SDS011;64402;44.708;37.644;2022-10-31T02:24:58;8.57;;;2.45;;
75785;SDS011;64402;44.708;37.644;2022-10-31T02:30:37;8.15;;;2.08;;
75785;SDS011;64402;44.708;37.644;2022-10-31T02:36:02;7.18;;;2.15;;
75785;SDS011;64402;44.708;37.644;2022-10-31T02:46:56;9.75;;;2.58;;
75785;SDS011;64402;44.708;37.644;2022-10-31T02:49:29;6.13;;;2.47;;
75785;SDS011;64402;44.708;37.644;2022-10-31T02:52:16;6.35;;;2.00;;
75785;SDS011;64402;44.708;37.644;2022-10-31T02:54:47;8.65;;;2.80;;
75785;SDS011;64402;44.708;37.644;2022-10-31T02:57:14;9.93;;;3.10;;
75785;SDS011;64402;44.708;37.644;2022-10-31T02:59:46;6.57;;;2.13;;
75785;SDS011;64402;44.708;37.644;2022-10-31T03:08:10;5.82;;;2.28;;
75785;SDS011;64402;44.708;37.644;2022-10-31T03:11:01;6.40;;;2.08;;
75785;SDS011;64402;44.708;37.644;2022-10-31T03:21:22;5.55;;;1.88;;
75785;SDS011;64402;44.708;37.644;2022-10-31T03:24:03;8.35;;;2.30;;
75785;SDS011;64402;44.708;37.644;2022-10-31T03:26:31;7.90;;;2.20;;
75785;SDS011;64402;44.708;37.644;2022-10-31T03:29:01;9.13;;;2.13;;
75785;SDS011;64402;44.708;37.644;2022-10-31T03:31:32;8.23;;;2.47;;
75785;SDS011;64402;44.708;37.644;2022-10-31T03:34:07;8.77;;;2.60;;
75785;SDS011;64402;44.708;37.644;2022-10-31T03:39:02;9.13;;;3.58;;
75785;SDS011;64402;44.708;37.644;2022-10-31T03:41:32;10.82;;;2.80;;
75785;SDS011;64402;44.708;37.644;2022-10-31T03:44:06;7.75;;;2.45;;
75785;SDS011;64402;44.708;37.644;2022-10-31T03:46:36;7.00;;;2.40;;
75785;SDS011;64402;44.708;37.644;2022-10-31T03:49:02;10.57;;;2.13;;
75785;SDS011;64402;44.708;37.644;2022-10-31T03:51:35;8.77;;;2.38;;
75785;SDS011;64402;44.708;37.644;2022-10-31T03:54:25;10.65;;;2.53;;
75785;SDS011;64402;44.708;37.644;2022-10-31T03:56:57;8.93;;;2.13;;
75785;SDS011;64402;44.708;37.644;2022-10-31T03:59:33;5.18;;;2.10;;
75785;SDS011;64402;44.708;37.644;2022-10-31T04:02:07;7.00;;;2.22;;
75785;SDS011;64402;44.708;37.644;2022-10-31T04:04:38;9.70;;;2.40;;
75785;SDS011;64402;44.708;37.644;2022-10-31T04:07:05;7.65;;;2.67;;
75785;SDS011;64402;44.708;37.644;2022-10-31T04:09:34;9.80;;;2.17;;
75785;SDS011;64402;44.708;37.644;2022-10-31T04:12:03;8.90;;;2.60;;
75785;SDS011;64402;44.708;37.644;2022-10-31T04:14:35;7.43;;;2.40;;
75785;SDS011;64402;44.708;37.644;2022-10-31T04:17:03;6.93;;;2.45;;
75785;SDS011;64402;44.708;37.644;2022-10-31T04:19:33;6.28;;;2.58;;
75785;SDS011;64402;44.708;37.644;2022-10-31T04:21:59;6.53;;;2.30;;
75785;SDS011;64402;44.708;37.644;2022-10-31T04:24:25;6.75;;;2.40;;
75785;SDS011;64402;44.708;37.644;2022-10-31T04:26:52;7.97;;;2.28;;
75785;SDS011;64402;44.708;37.644;2022-10-31T04:29:18;5.88;;;2.03;;
75785;SDS011;64402;44.708;37.644;2022-10-31T04:31:44;11.52;;;2.53;;
75785;SDS011;64402;44.708;37.644;2022-10-31T04:34:10;9.35;;;3.10;;
75785;SDS011;64402;44.708;37.644;2022-10-31T04:36:36;9.70;;;2.60;;
75785;SDS011;64402;44.708;37.644;2022-10-31T04:39:02;7.57;;;2.50;;
75785;SDS011;64402;44.708;37.644;2022-10-31T04:41:28;9.45;;;2.70;;
75785;SDS011;64402;44.708;37.644;2022-10-31T04:43:54;6.90;;;2.80;;
75785;SDS011;64402;44.708;37.644;2022-10-31T04:46:21;7.97;;;2.70;;
75785;SDS011;64402;44.708;37.644;2022-10-31T04:48:47;7.30;;;2.70;;
75785;SDS011;64402;44.708;37.644;2022-10-31T04:51:13;8.27;;;2.95;;
75785;SDS011;64402;44.708;37.644;2022-10-31T04:53:39;8.32;;;3.00;;
75785;SDS011;64402;44.708;37.644;2022-10-31T04:56:05;9.35;;;2.70;;
75785;SDS011;64402;44.708;37.644;2022-10-31T04:58:31;5.72;;;2.35;;
75785;SDS011;64402;44.708;37.644;2022-10-31T05:00:57;7.72;;;2.75;;
75785;SDS011;64402;44.708;37.644;2022-10-31T05:03:24;9.02;;;3.15;;
75785;SDS011;64402;44.708;37.644;2022-10-31T05:05:50;11.13;;;3.40;;
75785;SDS011;64402;44.708;37.644;2022-10-31T05:08:16;6.72;;;3.10;;
75785;SDS011;64402;44.708;37.644;2022-10-31T05:10:42;8.98;;;3.13;;
75785;SDS011;64402;44.708;37.644;2022-10-31T05:13:08;8.45;;;3.28;;
75785;SDS011;64402;44.708;37.644;2022-10-31T05:15:34;10.15;;;3.63;;
75785;SDS011;64402;44.708;37.644;2022-10-31T05:18:01;6.68;;;3.05;;
75785;SDS011;64402;44.708;37.644;2022-10-31T05:20:28;7.57;;;3.10;;
75785;SDS011;64402;44.708;37.644;2022-10-31T05:22:55;8.50;;;3.28;;
75785;SDS011;64402;44.708;37.644;2022-10-31T05:25:23;9.82;;;3.28;;
75785;SDS011;64402;44.708;37.644;2022-10-31T05:27:51;10.80;;;3.70;;
75785;SDS011;64402;44.708;37.644;2022-10-31T05:30:19;11.38;;;3.20;;
75785;SDS011;64402;44.708;37.644;2022-10-31T05:32:48;7.28;;;3.25;;
75785;SDS011;64402;44.708;37.644;2022-10-31T05:35:16;6.72;;;2.90;;
75785;SDS011;64402;44.708;37.644;2022-10-31T05:37:48;8.75;;;3.40;;
75785;SDS011;64402;44.708;37.644;2022-10-31T05:40:14;8.02;;;3.15;;
75785;SDS011;64402;44.708;37.644;2022-10-31T05:42:42;7.00;;;3.10;;
75785;SDS011;64402;44.708;37.644;2022-10-31T05:45:10;10.02;;;2.67;;
75785;SDS011;64402;44.708;37.644;2022-10-31T05:47:38;8.60;;;3.45;;
75785;SDS011;64402;44.708;37.644;2022-10-31T05:50:04;9.05;;;2.92;;
75785;SDS011;64402;44.708;37.644;2022-10-31T05:52:32;8.15;;;3.05;;
75785;SDS011;64402;44.708;37.644;2022-10-31T05:54:58;7.35;;;2.75;;
75785;SDS011;64402;44.708;37.644;2022-10-31T05:57:24;6.68;;;2.50;;
75785;SDS011;64402;44.708;37.644;2022-10-31T05:59:50;9.00;;;3.00;;
75785;SDS011;64402;44.708;37.644;2022-10-31T06:02:19;5.72;;;2.38;;
75785;SDS011;64402;44.708;37.644;2022-10-31T06:04:46;7.88;;;3.10;;
75785;SDS011;64402;44.708;37.644;2022-10-31T06:07:15;6.82;;;2.20;;
75785;SDS011;64402;44.708;37.644;2022-10-31T06:09:41;7.88;;;2.97;;
75785;SDS011;64402;44.708;37.644;2022-10-31T06:12:07;6.90;;;2.45;;
75785;SDS011;64402;44.708;37.644;2022-10-31T06:14:33;7.35;;;2.47;;
75785;SDS011;64402;44.708;37.644;2022-10-31T06:16:59;5.45;;;2.10;;
75785;SDS011;64402;44.708;37.644;2022-10-31T06:19:25;5.70;;;2.15;;
75785;SDS011;64402;44.708;37.644;2022-10-31T06:21:51;6.82;;;2.20;;
75785;SDS011;64402;44.708;37.644;2022-10-31T06:24:17;7.07;;;2.40;;
75785;SDS011;64402;44.708;37.644;2022-10-31T06:26:44;6.93;;;2.50;;
75785;SDS011;64402;44.708;37.644;2022-10-31T06:29:10;8.10;;;2.30;;
75785;SDS011;64402;44.708;37.644;2022-10-31T06:31:36;7.68;;;2.35;;
75785;SDS011;64402;44.708;37.644;2022-10-31T06:34:02;8.55;;;2.40;;
75785;SDS011;64402;44.708;37.644;2022-10-31T06:36:28;5.40;;;2.30;;
75785;SDS011;64402;44.708;37.644;2022-10-31T06:38:54;7.95;;;2.28;;
75785;SDS011;64402;44.708;37.644;2022-10-31T06:41:20;5.30;;;2.10;;
75785;SDS011;64402;44.708;37.644;2022-10-31T06:43:46;7.80;;;2.42;;
75785;SDS011;64402;44.708;37.644;2022-10-31T06:46:13;7.03;;;2.20;;
75785;SDS011;64402;44.708;37.644;2022-10-31T06:48:42;7.80;;;2.30;;
75785;SDS011;64402;44.708;37.644;2022-10-31T06:51:08;6.63;;;2.70;;
75785;SDS011;64402;44.708;37.644;2022-10-31T06:53:35;7.70;;;2.33;;
75785;SDS011;64402;44.708;37.644;2022-10-31T06:56:01;6.00;;;2.13;;
75785;SDS011;64402;44.708;37.644;2022-10-31T06:58:27;8.90;;;2.75;;
75785;SDS011;64402;44.708;37.644;2022-10-31T07:03:20;6.30;;;2.22;;
75785;SDS011;64402;44.708;37.644;2022-10-31T07:05:46;7.15;;;2.35;;
75785;SDS011;64402;44.708;37.644;2022-10-31T07:08:13;7.70;;;2.40;;
75785;SDS011;64402;44.708;37.644;2022-10-31T07:10:40;7.20;;;2.30;;
75785;SDS011;64402;44.708;37.644;2022-10-31T07:13:12;7.45;;;2.85;;
75785;SDS011;64402;44.708;37.644;2022-10-31T07:15:40;8.48;;;3.10;;
75785;SDS011;64402;44.708;37.644;2022-10-31T07:18:08;8.20;;;3.50;;
75785;SDS011;64402;44.708;37.644;2022-10-31T07:20:36;6.57;;;3.00;;
75785;SDS011;64402;44.708;37.644;2022-10-31T07:23:02;8.43;;;2.65;;
75785;SDS011;64402;44.708;37.644;2022-10-31T07:25:29;10.43;;;3.45;;
75785;SDS011;64402;44.708;37.644;2022-10-31T07:27:55;7.60;;;3.20;;
75785;SDS011;64402;44.708;37.644;2022-10-31T07:30:21;8.45;;;3.17;;
75785;SDS011;64402;44.708;37.644;2022-10-31T07:32:48;7.22;;;2.60;;
75785;SDS011;64402;44.708;37.644;2022-10-31T07:35:17;8.88;;;3.03;;
75785;SDS011;64402;44.708;37.644;2022-10-31T07:37:47;10.25;;;3.35;;
75785;SDS011;64402;44.708;37.644;2022-10-31T07:40:15;7.03;;;3.15;;
75785;SDS011;64402;44.708;37.644;2022-10-31T07:42:42;8.98;;;3.20;;
75785;SDS011;64402;44.708;37.644;2022-10-31T07:45:11;9.13;;;3.15;;
75785;SDS011;64402;44.708;37.644;2022-10-31T07:50:16;9.63;;;3.22;;
75785;SDS011;64402;44.708;37.644;2022-10-31T07:52:44;12.90;;;3.33;;
75785;SDS011;64402;44.708;37.644;2022-10-31T07:55:10;13.88;;;3.40;;
75785;SDS011;64402;44.708;37.644;2022-10-31T07:57:37;8.82;;;3.47;;
75785;SDS011;64402;44.708;37.644;2022-10-31T08:00:06;10.77;;;3.80;;
75785;SDS011;64402;44.708;37.644;2022-10-31T08:02:34;9.75;;;3.35;;
75785;SDS011;64402;44.708;37.644;2022-10-31T08:05:00;9.48;;;3.28;;
75785;SDS011;64402;44.708;37.644;2022-10-31T08:07:27;9.25;;;3.70;;
75785;SDS011;64402;44.708;37.644;2022-10-31T08:09:54;9.93;;;3.80;;
75785;SDS011;64402;44.708;37.644;2022-10-31T08:14:49;10.82;;;4.03;;
75785;SDS011;64402;44.708;37.644;2022-10-31T08:17:15;9.82;;;3.22;;
75785;SDS011;64402;44.708;37.644;2022-10-31T08:19:41;12.35;;;3.60;;
75785;SDS011;64402;44.708;37.644;2022-10-31T08:22:08;10.52;;;4.07;;
75785;SDS011;64402;44.708;37.644;2022-10-31T08:24:34;10.25;;;3.45;;
75785;SDS011;64402;44.708;37.644;2022-10-31T08:27:00;12.63;;;3.50;;
75785;SDS011;64402;44.708;37.644;2022-10-31T08:29:27;11.82;;;3.72;;
75785;SDS011;64402;44.708;37.644;2022-10-31T08:31:53;10.30;;;3.60;;
75785;SDS011;64402;44.708;37.644;2022-10-31T08:34:19;7.95;;;3.80;;
75785;SDS011;64402;44.708;37.644;2022-10-31T08:36:46;8.32;;;3.42;;
75785;SDS011;64402;44.708;37.644;2022-10-31T08:39:12;8.35;;;2.90;;
75785;SDS011;64402;44.708;37.644;2022-10-31T08:41:38;9.52;;;3.40;;
75785;SDS011;64402;44.708;37.644;2022-10-31T08:44:04;11.68;;;3.22;;
75785;SDS011;64402;44.708;37.644;2022-10-31T08:46:31;8.43;;;3.20;;
75785;SDS011;64402;44.708;37.644;2022-10-31T08:49:01;10.52;;;3.40;;
75785;SDS011;64402;44.708;37.644;2022-10-31T08:51:27;10.35;;;2.90;;
75785;SDS011;64402;44.708;37.644;2022-10-31T08:53:53;7.50;;;3.10;;
75785;SDS011;64402;44.708;37.644;2022-10-31T08:56:19;9.35;;;2.58;;
75785;SDS011;64402;44.708;37.644;2022-10-31T08:58:47;8.20;;;2.75;;
75785;SDS011;64402;44.708;37.644;2022-10-31T09:01:14;11.63;;;3.10;;
75785;SDS011;64402;44.708;37.644;2022-10-31T09:03:40;7.03;;;2.63;;
75785;SDS011;64402;44.708;37.644;2022-10-31T09:06:06;7.18;;;2.72;;
75785;SDS011;64402;44.708;37.644;2022-10-31T09:08:34;7.97;;;2.30;;
75785;SDS011;64402;44.708;37.644;2022-10-31T09:11:01;8.18;;;2.50;;
75785;SDS011;64402;44.708;37.644;2022-10-31T09:13:28;13.02;;;3.00;;
75785;SDS011;64402;44.708;37.644;2022-10-31T09:15:55;9.32;;;2.70;;
75785;SDS011;64402;44.708;37.644;2022-10-31T09:18:23;8.93;;;2.45;;
75785;SDS011;64402;44.708;37.644;2022-10-31T09:20:50;7.15;;;2.25;;
75785;SDS011;64402;44.708;37.644;2022-10-31T09:23:17;6.38;;;1.90;;
75785;SDS011;64402;44.708;37.644;2022-10-31T09:25:46;7.30;;;2.45;;
75785;SDS011;64402;44.708;37.644;2022-10-31T09:28:14;10.18;;;2.53;;
75785;SDS011;64402;44.708;37.644;2022-10-31T09:30:41;5.72;;;2.10;;
75785;SDS011;64402;44.708;37.644;2022-10-31T09:33:11;9.75;;;2.22;;
75785;SDS011;64402;44.708;37.644;2022-10-31T09:35:38;7.45;;;2.05;;
75785;SDS011;64402;44.708;37.644;2022-10-31T09:38:07;11.65;;;2.10;;
75785;SDS011;64402;44.708;37.644;2022-10-31T09:40:36;8.13;;;1.83;;
75785;SDS011;64402;44.708;37.644;2022-10-31T09:48:48;7.80;;;1.80;;
75785;SDS011;64402;44.708;37.644;2022-10-31T09:54:05;7.05;;;1.70;;
75785;SDS011;64402;44.708;37.644;2022-10-31T09:56:32;4.95;;;1.60;;
75785;SDS011;64402;44.708;37.644;2022-10-31T09:59:00;6.95;;;1.85;;
75785;SDS011;64402;44.708;37.644;2022-10-31T10:04:11;8.15;;;2.03;;
75785;SDS011;64402;44.708;37.644;2022-10-31T10:06:47;7.13;;;2.10;;
75785;SDS011;64402;44.708;37.644;2022-10-31T10:09:18;7.45;;;2.00;;
75785;SDS011;64402;44.708;37.644;2022-10-31T10:14:50;8.02;;;2.03;;
75785;SDS011;64402;44.708;37.644;2022-10-31T10:17:38;8.88;;;1.92;;
75785;SDS011;64402;44.708;37.644;2022-10-31T10:25:45;5.75;;;1.80;;
75785;SDS011;64402;44.708;37.644;2022-10-31T10:33:18;5.43;;;1.50;;
75785;SDS011;64402;44.708;37.644;2022-10-31T10:35:55;4.72;;;1.38;;
75785;SDS011;64402;44.708;37.644;2022-10-31T10:38:30;6.45;;;1.52;;
75785;SDS011;64402;44.708;37.644;2022-10-31T10:41:05;7.18;;;1.50;;
75785;SDS011;64402;44.708;37.644;2022-10-31T10:43:39;6.35;;;1.80;;
75785;SDS011;64402;44.708;37.644;2022-10-31T10:49:17;8.55;;;1.70;;
75785;SDS011;64402;44.708;37.644;2022-10-31T10:54:46;7.78;;;1.70;;
75785;SDS011;64402;44.708;37.644;2022-10-31T10:57:42;7.63;;;1.85;;
75785;SDS011;64402;44.708;37.644;2022-10-31T11:00:21;7.25;;;2.03;;
75785;SDS011;64402;44.708;37.644;2022-10-31T11:02:51;5.38;;;1.55;;
75785;SDS011;64402;44.708;37.644;2022-10-31T11:05:39;5.07;;;1.60;;
75785;SDS011;64402;44.708;37.644;2022-10-31T11:08:26;7.82;;;1.85;;
75785;SDS011;64402;44.708;37.644;2022-10-31T11:11:08;7.07;;;1.80;;
75785;SDS011;64402;44.708;37.644;2022-10-31T11:13:40;8.60;;;2.00;;
75785;SDS011;64402;44.708;37.644;2022-10-31T11:16:29;7.20;;;2.10;;
75785;SDS011;64402;44.708;37.644;2022-10-31T11:18:54;7.35;;;2.25;;
75785;SDS011;64402;44.708;37.644;2022-10-31T11:21:40;8.32;;;2.28;;
75785;SDS011;64402;44.708;37.644;2022-10-31T11:26:39;7.80;;;2.30;;
75785;SDS011;64402;44.708;37.644;2022-10-31T11:29:14;6.57;;;2.00;;
75785;SDS011;64402;44.708;37.644;2022-10-31T11:31:55;6.75;;;2.22;;
75785;SDS011;64402;44.708;37.644;2022-10-31T11:37:03;6.78;;;2.30;;
75785;SDS011;64402;44.708;37.644;2022-10-31T11:39:44;8.23;;;2.65;;
75785;SDS011;64402;44.708;37.644;2022-10-31T11:42:19;11.38;;;2.60;;
75785;SDS011;64402;44.708;37.644;2022-10-31T11:44:48;6.95;;;2.70;;
75785;SDS011;64402;44.708;37.644;2022-10-31T11:47:16;10.85;;;3.03;;
75785;SDS011;64402;44.708;37.644;2022-10-31T11:49:44;8.23;;;2.50;;
75785;SDS011;64402;44.708;37.644;2022-10-31T11:52:47;8.70;;;2.80;;
75785;SDS011;64402;44.708;37.644;2022-10-31T11:57:48;10.07;;;2.95;;
75785;SDS011;64402;44.708;37.644;2022-10-31T12:02:47;7.40;;;2.67;;
75785;SDS011;64402;44.708;37.644;2022-10-31T12:05:25;11.10;;;2.78;;
75785;SDS011;64402;44.708;37.644;2022-10-31T12:07:58;6.97;;;2.60;;
75785;SDS011;64402;44.708;37.644;2022-10-31T12:10:27;7.72;;;2.75;;
75785;SDS011;64402;44.708;37.644;2022-10-31T12:15:49;9.38;;;3.08;;
75785;SDS011;64402;44.708;37.644;2022-10-31T12:18:37;13.38;;;4.10;;
75785;SDS011;64402;44.708;37.644;2022-10-31T12:23:50;10.30;;;4.05;;
75785;SDS011;64402;44.708;37.644;2022-10-31T12:26:37;13.20;;;4.28;;
75785;SDS011;64402;44.708;37.644;2022-10-31T12:41:07;10.32;;;3.25;;
75785;SDS011;64402;44.708;37.644;2022-10-31T12:46:25;11.43;;;3.33;;
75785;SDS011;64402;44.708;37.644;2022-10-31T12:49:16;9.40;;;3.47;;
75785;SDS011;64402;44.708;37.644;2022-10-31T12:51:49;9.55;;;2.80;;
75785;SDS011;64402;44.708;37.644;2022-10-31T12:54:42;8.50;;;2.50;;
75785;SDS011;64402;44.708;37.644;2022-10-31T13:00:07;12.13;;;2.55;;
75785;SDS011;64402;44.708;37.644;2022-10-31T13:02:46;8.63;;;2.25;;
75785;SDS011;64402;44.708;37.644;2022-10-31T13:08:06;11.73;;;2.28;;
75785;SDS011;64402;44.708;37.644;2022-10-31T13:11:47;6.88;;;1.90;;
75785;SDS011;64402;44.708;37.644;2022-10-31T13:16:40;7.47;;;2.13;;
75785;SDS011;64402;44.708;37.644;2022-10-31T13:19:20;5.35;;;1.70;;
75785;SDS011;64402;44.708;37.644;2022-10-31T13:27:20;7.95;;;2.20;;
75785;SDS011;64402;44.708;37.644;2022-10-31T13:33:11;7.00;;;2.08;;
75785;SDS011;64402;44.708;37.644;2022-10-31T13:48:59;6.57;;;2.10;;
75785;SDS011;64402;44.708;37.644;2022-10-31T13:51:26;7.55;;;2.47;;
75785;SDS011;64402;44.708;37.644;2022-10-31T13:56:39;7.53;;;1.90;;
75785;SDS011;64402;44.708;37.644;2022-10-31T14:01:35;8.15;;;1.92;;
75785;SDS011;64402;44.708;37.644;2022-10-31T14:04:03;6.20;;;1.80;;
75785;SDS011;64402;44.708;37.644;2022-10-31T14:06:37;8.60;;;1.63;;
75785;SDS011;64402;44.708;37.644;2022-10-31T14:15:17;8.43;;;1.65;;
75785;SDS011;64402;44.708;37.644;2022-10-31T14:17:53;9.93;;;1.88;;
75785;SDS011;64402;44.708;37.644;2022-10-31T14:23:12;11.65;;;2.63;;
75785;SDS011;64402;44.708;37.644;2022-10-31T14:26:07;8.35;;;2.50;;
75785;SDS011;64402;44.708;37.644;2022-10-31T14:31:44;11.55;;;2.60;;
75785;SDS011;64402;44.708;37.644;2022-10-31T14:51:18;7.50;;;2.03;;
75785;SDS011;64402;44.708;37.644;2022-10-31T14:53:48;9.38;;;1.90;;
75785;SDS011;64402;44.708;37.644;2022-10-31T14:56:26;11.32;;;2.30;;
75785;SDS011;64402;44.708;37.644;2022-10-31T14:58:56;12.93;;;2.38;;
75785;SDS011;64402;44.708;37.644;2022-10-31T15:01:27;10.95;;;3.20;;
75785;SDS011;64402;44.708;37.644;2022-10-31T15:04:16;9.15;;;2.30;;
75785;SDS011;64402;44.708;37.644;2022-10-31T15:06:53;11.50;;;2.63;;
75785;SDS011;64402;44.708;37.644;2022-10-31T15:09:28;8.90;;;2.58;;
75785;SDS011;64402;44.708;37.644;2022-10-31T15:11:58;7.38;;;2.13;;
75785;SDS011;64402;44.708;37.644;2022-10-31T15:14:29;7.72;;;2.30;;
75785;SDS011;64402;44.708;37.644;2022-10-31T15:16:57;7.53;;;2.60;;
75785;SDS011;64402;44.708;37.644;2022-10-31T15:19:25;8.73;;;2.28;;
75785;SDS011;64402;44.708;37.644;2022-10-31T15:21:55;8.18;;;2.08;;
75785;SDS011;64402;44.708;37.644;2022-10-31T15:24:23;7.60;;;2.30;;
75785;SDS011;64402;44.708;37.644;2022-10-31T15:27:00;9.68;;;2.10;;
75785;SDS011;64402;44.708;37.644;2022-10-31T15:29:27;7.13;;;1.92;;
75785;SDS011;64402;44.708;37.644;2022-10-31T15:31:56;9.57;;;2.33;;
75785;SDS011;64402;44.708;37.644;2022-10-31T15:34:26;7.78;;;2.15;;
75785;SDS011;64402;44.708;37.644;2022-10-31T15:37:14;9.30;;;2.17;;
75785;SDS011;64402;44.708;37.644;2022-10-31T15:39:42;9.68;;;2.15;;
75785;SDS011;64402;44.708;37.644;2022-10-31T15:42:30;6.82;;;1.85;;
75785;SDS011;64402;44.708;37.644;2022-10-31T15:47:38;5.85;;;1.90;;
75785;SDS011;64402;44.708;37.644;2022-10-31T15:50:29;5.55;;;1.70;;
75785;SDS011;64402;44.708;37.644;2022-10-31T15:52:57;7.07;;;1.80;;
75785;SDS011;64402;44.708;37.644;2022-10-31T15:55:25;4.65;;;1.50;;
75785;SDS011;64402;44.708;37.644;2022-10-31T15:57:55;9.23;;;2.05;;
75785;SDS011;64402;44.708;37.644;2022-10-31T16:00:25;10.25;;;2.10;;
75785;SDS011;64402;44.708;37.644;2022-10-31T16:05:44;10.57;;;1.73;;
75785;SDS011;64402;44.708;37.644;2022-10-31T16:11:14;8.85;;;2.10;;
75785;SDS011;64402;44.708;37.644;2022-10-31T16:14:00;6.95;;;1.77;;
75785;SDS011;64402;44.708;37.644;2022-10-31T16:16:28;7.65;;;1.88;;
75785;SDS011;64402;44.708;37.644;2022-10-31T16:18:56;8.77;;;2.35;;
75785;SDS011;64402;44.708;37.644;2022-10-31T16:21:34;6.53;;;1.90;;
75785;SDS011;64402;44.708;37.644;2022-10-31T16:24:04;9.20;;;2.17;;
75785;SDS011;64402;44.708;37.644;2022-10-31T16:26:39;6.22;;;1.70;;
75785;SDS011;64402;44.708;37.644;2022-10-31T16:29:22;8.85;;;1.98;;
75785;SDS011;64402;44.708;37.644;2022-10-31T16:31:59;6.40;;;1.95;;
75785;SDS011;64402;44.708;37.644;2022-10-31T16:34:26;7.38;;;1.98;;
75785;SDS011;64402;44.708;37.644;2022-10-31T16:36:52;7.65;;;2.10;;
75785;SDS011;64402;44.708;37.644;2022-10-31T16:39:19;7.75;;;2.10;;
75785;SDS011;64402;44.708;37.644;2022-10-31T16:41:46;9.18;;;1.90;;
75785;SDS011;64402;44.708;37.644;2022-10-31T16:44:21;7.15;;;2.25;;
75785;SDS011;64402;44.708;37.644;2022-10-31T16:46:57;8.32;;;2.10;;
75785;SDS011;64402;44.708;37.644;2022-10-31T16:49:34;9.75;;;2.97;;
75785;SDS011;64402;44.708;37.644;2022-10-31T16:52:00;12.85;;;3.80;;
75785;SDS011;64402;44.708;37.644;2022-10-31T16:54:28;6.57;;;2.40;;
75785;SDS011;64402;44.708;37.644;2022-10-31T16:56:55;9.45;;;2.40;;
75785;SDS011;64402;44.708;37.644;2022-10-31T16:59:23;7.20;;;2.20;;
75785;SDS011;64402;44.708;37.644;2022-10-31T17:01:49;7.28;;;1.98;;
75785;SDS011;64402;44.708;37.644;2022-10-31T17:04:16;8.27;;;2.10;;
75785;SDS011;64402;44.708;37.644;2022-10-31T17:06:43;7.70;;;2.05;;
75785;SDS011;64402;44.708;37.644;2022-10-31T17:09:09;4.82;;;1.70;;
75785;SDS011;64402;44.708;37.644;2022-10-31T17:11:35;8.10;;;1.67;;
75785;SDS011;64402;44.708;37.644;2022-10-31T17:14:05;4.70;;;1.70;;
75785;SDS011;64402;44.708;37.644;2022-10-31T17:16:32;8.13;;;1.50;;
75785;SDS011;64402;44.708;37.644;2022-10-31T17:18:58;7.55;;;1.40;;
75785;SDS011;64402;44.708;37.644;2022-10-31T17:21:25;7.95;;;1.70;;
75785;SDS011;64402;44.708;37.644;2022-10-31T17:26:18;4.88;;;1.50;;
75785;SDS011;64402;44.708;37.644;2022-10-31T17:28:45;5.57;;;1.65;;
75785;SDS011;64402;44.708;37.644;2022-10-31T17:31:19;10.13;;;1.73;;
75785;SDS011;64402;44.708;37.644;2022-10-31T17:33:53;6.13;;;1.45;;
75785;SDS011;64402;44.708;37.644;2022-10-31T17:36:21;8.88;;;1.90;;
75785;SDS011;64402;44.708;37.644;2022-10-31T17:38:47;7.93;;;1.40;;
75785;SDS011;64402;44.708;37.644;2022-10-31T17:41:14;4.57;;;1.20;;
75785;SDS011;64402;44.708;37.644;2022-10-31T17:43:41;5.53;;;1.40;;
75785;SDS011;64402;44.708;37.644;2022-10-31T17:46:07;7.20;;;1.40;;
75785;SDS011;64402;44.708;37.644;2022-10-31T17:48:34;3.45;;;1.00;;
75785;SDS011;64402;44.708;37.644;2022-10-31T17:51:02;5.00;;;1.10;;
75785;SDS011;64402;44.708;37.644;2022-10-31T17:53:30;3.38;;;1.08;;
75785;SDS011;64402;44.708;37.644;2022-10-31T17:56:04;5.85;;;1.27;;
75785;SDS011;64402;44.708;37.644;2022-10-31T17:58:33;5.72;;;1.00;;